Time,TemperatureF,DewpointF,PressureIn,WindDirection,WindDirectionDegrees,WindSpeedMPH,WindSpeedGustMPH,Humidity,HourlyPrecipIn,Conditions,Clouds,dailyrainin,SoftwareType,DateUTC
2013-04-17 00:00:00,63.8,59.2,30.14,South,170,0.0,0.0,85,0.00,,,0.02,Wunderground v.1.15,2013-04-17 04:00:00,
2013-04-17 00:05:00,63.8,59.2,30.14,South,170,0.0,0.0,85,0.00,,,0.00,Wunderground v.1.15,2013-04-17 04:05:00,
2013-04-17 00:15:00,63.6,59.3,30.14,South,170,0.0,0.0,86,0.00,,,0.00,Wunderground v.1.15,2013-04-17 04:15:00,
2013-04-17 00:20:00,63.3,59.0,30.14,South,169,0.0,0.0,86,0.00,,,0.00,Wunderground v.1.15,2013-04-17 04:20:00,
2013-04-17 00:25:00,62.9,58.6,30.14,South,170,0.0,0.0,86,0.00,,,0.00,Wunderground v.1.15,2013-04-17 04:25:00,
2013-04-17 00:30:00,62.5,58.6,30.14,South,170,0.0,0.0,87,0.00,,,0.00,Wunderground v.1.15,2013-04-17 04:30:00,
2013-04-17 00:35:00,62.3,58.7,30.14,South,169,0.0,0.0,88,0.00,,,0.00,Wunderground v.1.15,2013-04-17 04:35:00,
2013-04-17 00:40:00,62.3,58.7,30.14,South,170,0.0,0.0,88,0.00,,,0.00,Wunderground v.1.15,2013-04-17 04:40:00,
2013-04-17 00:45:00,62.2,58.6,30.14,South,170,0.0,0.0,88,0.00,,,0.00,Wunderground v.1.15,2013-04-17 04:45:00,
2013-04-17 00:50:00,62.2,58.6,30.15,South,170,0.0,0.0,88,0.00,,,0.00,Wunderground v.1.15,2013-04-17 04:50:00,
2013-04-17 00:55:00,61.8,58.2,30.17,NNW,333,1.0,2.0,88,0.00,,,0.00,Wunderground v.1.15,2013-04-17 04:55:00,
2013-04-17 01:05:00,60.9,57.9,30.18,NNW,332,1.0,1.0,90,0.00,,,0.00,Wunderground v.1.15,2013-04-17 05:05:00,
2013-04-17 01:15:00,60.8,58.2,30.18,NNW,332,0.0,1.0,91,0.00,,,0.00,Wunderground v.1.15,2013-04-17 05:15:00,
2013-04-17 01:25:00,61.0,58.7,30.17,South,183,0.0,0.0,92,0.00,,,0.00,Wunderground v.1.15,2013-04-17 05:25:00,
2013-04-17 01:35:00,61.2,58.6,30.16,South,183,0.0,0.0,91,0.00,,,0.00,Wunderground v.1.15,2013-04-17 05:35:00,
2013-04-17 01:40:00,61.4,59.1,30.16,South,183,0.0,0.0,92,0.00,,,0.00,Wunderground v.1.15,2013-04-17 05:40:00,
2013-04-17 01:50:00,61.4,59.1,30.15,South,183,0.0,0.0,92,0.00,,,0.00,Wunderground v.1.15,2013-04-17 05:50:00,
2013-04-17 01:55:00,61.4,59.1,30.15,South,183,0.0,0.0,92,0.00,,,0.00,Wunderground v.1.15,2013-04-17 05:55:00,
2013-04-17 02:05:00,61.3,59.0,30.13,South,183,0.0,0.0,92,0.00,,,0.00,Wunderground v.1.15,2013-04-17 06:05:00,
2013-04-17 02:15:00,61.3,59.3,30.12,South,177,0.0,0.0,93,0.00,,,0.00,Wunderground v.1.15,2013-04-17 06:15:00,
2013-04-17 02:20:00,61.4,59.1,30.13,South,177,0.0,0.0,92,0.00,,,0.00,Wunderground v.1.15,2013-04-17 06:20:00,
2013-04-17 02:30:00,61.5,59.2,30.12,SE,141,0.0,0.0,92,0.00,,,0.00,Wunderground v.1.15,2013-04-17 06:30:00,
2013-04-17 02:35:00,61.4,59.1,30.12,SE,140,0.0,0.0,92,0.00,,,0.00,Wunderground v.1.15,2013-04-17 06:35:00,
2013-04-17 02:45:00,61.1,59.1,30.11,SE,141,0.0,0.0,93,0.00,,,0.00,Wunderground v.1.15,2013-04-17 06:45:00,
2013-04-17 02:55:00,60.5,58.5,30.11,SE,141,0.0,0.0,93,0.00,,,0.00,Wunderground v.1.15,2013-04-17 06:55:00,
2013-04-17 03:00:00,60.4,58.4,30.12,SE,141,0.0,0.0,93,0.00,,,0.00,Wunderground v.1.15,2013-04-17 07:00:00,
2013-04-17 03:05:00,60.3,58.3,30.11,SE,141,0.0,0.0,93,0.00,,,0.00,Wunderground v.1.15,2013-04-17 07:05:00,
2013-04-17 03:15:00,60.1,58.4,30.11,SE,140,0.0,0.0,94,0.00,,,0.00,Wunderground v.1.15,2013-04-17 07:15:00,
2013-04-17 03:20:00,60.1,58.4,30.10,SE,141,0.0,0.0,94,0.00,,,0.00,Wunderground v.1.15,2013-04-17 07:20:00,
2013-04-17 03:25:00,60.0,58.3,30.10,SE,141,0.0,0.0,94,0.00,,,0.00,Wunderground v.1.15,2013-04-17 07:25:00,
2013-04-17 03:35:00,60.1,58.4,30.09,SE,141,0.0,0.0,94,0.00,,,0.00,Wunderground v.1.15,2013-04-17 07:35:00,
2013-04-17 03:40:00,60.2,58.5,30.09,SE,141,0.0,0.0,94,0.00,,,0.00,Wunderground v.1.15,2013-04-17 07:40:00,
2013-04-17 03:50:00,60.1,58.4,30.09,SE,141,0.0,0.0,94,0.00,,,0.00,Wunderground v.1.15,2013-04-17 07:50:00,
2013-04-17 04:00:00,60.1,58.7,30.09,SE,141,0.0,0.0,95,0.00,,,0.00,Wunderground v.1.15,2013-04-17 08:00:00,
2013-04-17 04:05:00,60.1,58.7,30.09,SE,141,0.0,0.0,95,0.00,,,0.00,Wunderground v.1.15,2013-04-17 08:05:00,
2013-04-17 04:15:00,60.0,58.3,30.09,SE,140,0.0,0.0,94,0.00,,,0.00,Wunderground v.1.15,2013-04-17 08:15:00,
2013-04-17 04:25:00,59.7,58.3,30.09,SE,141,0.0,0.0,95,0.00,,,0.00,Wunderground v.1.15,2013-04-17 08:25:00,
2013-04-17 04:30:00,59.7,58.3,30.08,SE,141,0.0,0.0,95,0.00,,,0.00,Wunderground v.1.15,2013-04-17 08:30:00,
2013-04-17 04:40:00,59.5,58.1,30.10,SE,141,0.0,0.0,95,0.00,,,0.00,Wunderground v.1.15,2013-04-17 08:40:00,
2013-04-17 04:50:00,59.4,58.0,30.10,SE,141,0.0,0.0,95,0.00,,,0.00,Wunderground v.1.15,2013-04-17 08:50:00,
2013-04-17 04:55:00,59.3,57.9,30.10,SE,140,0.0,0.0,95,0.00,,,0.00,Wunderground v.1.15,2013-04-17 08:55:00,
2013-04-17 05:05:00,59.3,57.9,30.10,SE,140,0.0,0.0,95,0.00,,,0.00,Wunderground v.1.15,2013-04-17 09:05:00,
2013-04-17 05:15:00,59.5,58.1,30.10,SE,141,0.0,0.0,95,0.00,,,0.00,Wunderground v.1.15,2013-04-17 09:15:00,
2013-04-17 05:20:00,59.6,58.2,30.10,SE,141,0.0,0.0,95,0.00,,,0.00,Wunderground v.1.15,2013-04-17 09:20:00,
2013-04-17 05:30:00,59.6,58.2,30.10,SE,141,0.0,0.0,95,0.00,,,0.00,Wunderground v.1.15,2013-04-17 09:30:00,
2013-04-17 05:35:00,59.6,58.2,30.10,SE,141,0.0,0.0,95,0.00,,,0.00,Wunderground v.1.15,2013-04-17 09:35:00,
2013-04-17 05:45:00,59.6,58.2,30.11,SE,140,0.0,0.0,95,0.00,,,0.00,Wunderground v.1.15,2013-04-17 09:45:00,
2013-04-17 05:50:00,59.5,58.1,30.11,SE,141,0.0,0.0,95,0.00,,,0.00,Wunderground v.1.15,2013-04-17 09:50:00,
2013-04-17 06:00:00,59.1,57.7,30.11,SE,140,0.0,0.0,95,0.00,,,0.00,Wunderground v.1.15,2013-04-17 10:00:00,
2013-04-17 06:05:00,59.0,57.6,30.11,SE,140,0.0,0.0,95,0.00,,,0.00,Wunderground v.1.15,2013-04-17 10:05:00,
2013-04-17 06:15:00,59.0,57.9,30.11,SE,141,0.0,0.0,96,0.00,,,0.00,Wunderground v.1.15,2013-04-17 10:15:00,
2013-04-17 06:20:00,59.0,57.9,30.11,SE,141,0.0,0.0,96,0.00,,,0.00,Wunderground v.1.15,2013-04-17 10:20:00,
2013-04-17 06:25:00,59.0,57.9,30.11,SE,140,0.0,0.0,96,0.00,,,0.00,Wunderground v.1.15,2013-04-17 10:25:00,
2013-04-17 06:35:00,59.0,57.9,30.11,SE,140,0.0,0.0,96,0.00,,,0.00,Wunderground v.1.15,2013-04-17 10:35:00,
2013-04-17 06:40:00,59.0,57.9,30.12,SE,141,0.0,0.0,96,0.00,,,0.00,Wunderground v.1.15,2013-04-17 10:40:00,
2013-04-17 06:50:00,59.0,57.9,30.12,SE,140,0.0,0.0,96,0.00,,,0.00,Wunderground v.1.15,2013-04-17 10:50:00,
2013-04-17 06:55:00,58.6,57.5,30.13,SE,141,0.0,0.0,96,0.00,,,0.00,Wunderground v.1.15,2013-04-17 10:55:00,
2013-04-17 07:05:00,58.5,57.4,30.13,SE,141,0.0,0.0,96,0.00,,,0.00,Wunderground v.1.15,2013-04-17 11:05:00,
2013-04-17 07:15:00,58.8,58.0,30.13,SE,140,0.0,0.0,97,0.00,,,0.00,Wunderground v.1.15,2013-04-17 11:15:00,
2013-04-17 07:25:00,58.6,57.5,30.13,SE,141,0.0,0.0,96,0.00,,,0.00,Wunderground v.1.15,2013-04-17 11:25:00,
2013-04-17 07:30:00,58.6,57.5,30.14,SE,139,0.0,0.0,96,0.00,,,0.00,Wunderground v.1.15,2013-04-17 11:30:00,
2013-04-17 07:40:00,58.8,58.0,30.13,SE,140,0.0,0.0,97,0.00,,,0.00,Wunderground v.1.15,2013-04-17 11:40:00,
2013-04-17 07:45:00,59.0,58.2,30.14,SE,141,0.0,0.0,97,0.00,,,0.00,Wunderground v.1.15,2013-04-17 11:45:00,
2013-04-17 07:55:00,59.0,58.2,30.14,SE,140,0.0,0.0,97,0.00,,,0.00,Wunderground v.1.15,2013-04-17 11:55:00,
2013-04-17 08:05:00,59.5,58.6,30.13,SE,140,0.0,1.0,97,0.00,,,0.00,Wunderground v.1.15,2013-04-17 12:05:00,
2013-04-17 08:15:00,59.4,58.3,30.13,SE,141,0.0,0.0,96,0.00,,,0.00,Wunderground v.1.15,2013-04-17 12:15:00,
2013-04-17 08:20:00,59.6,58.5,30.13,SE,141,0.0,0.0,96,0.00,,,0.00,Wunderground v.1.15,2013-04-17 12:20:00,
2013-04-17 08:30:00,60.1,59.0,30.13,SE,141,0.0,0.0,96,0.00,,,0.00,Wunderground v.1.15,2013-04-17 12:30:00,
2013-04-17 08:40:00,60.9,59.8,30.13,SE,141,0.0,0.0,96,0.00,,,0.00,Wunderground v.1.15,2013-04-17 12:40:00,
2013-04-17 08:45:00,61.4,60.2,30.13,SE,140,0.0,0.0,96,0.00,,,0.00,Wunderground v.1.15,2013-04-17 12:45:00,
2013-04-17 08:55:00,62.1,60.7,30.13,SE,140,0.0,0.0,95,0.00,,,0.00,Wunderground v.1.15,2013-04-17 12:55:00,
2013-04-17 09:00:00,62.4,60.9,30.13,SE,140,0.0,0.0,95,0.00,,,0.00,Wunderground v.1.15,2013-04-17 13:00:00,
2013-04-17 09:05:00,62.7,60.9,30.13,SE,141,0.0,0.0,94,0.00,,,0.00,Wunderground v.1.15,2013-04-17 13:05:00,
2013-04-17 09:15:00,63.3,61.2,30.14,SE,141,0.0,0.0,93,0.00,,,0.00,Wunderground v.1.15,2013-04-17 13:15:00,
2013-04-17 09:20:00,63.6,61.5,30.14,SE,141,0.0,0.0,93,0.00,,,0.00,Wunderground v.1.15,2013-04-17 13:20:00,
2013-04-17 09:30:00,64.1,62.0,30.14,SE,141,0.0,0.0,93,0.00,,,0.00,Wunderground v.1.15,2013-04-17 13:30:00,
2013-04-17 09:35:00,64.3,61.9,30.14,SE,140,0.0,0.0,92,0.00,,,0.00,Wunderground v.1.15,2013-04-17 13:35:00,
2013-04-17 09:45:00,64.8,62.1,30.14,SE,141,0.0,0.0,91,0.00,,,0.00,Wunderground v.1.15,2013-04-17 13:45:00,
2013-04-17 09:50:00,65.1,62.1,30.14,SE,141,0.0,0.0,90,0.00,,,0.00,Wunderground v.1.15,2013-04-17 13:50:00,
2013-04-17 10:00:00,65.7,62.4,30.14,SE,141,0.0,0.0,89,0.00,,,0.00,Wunderground v.1.15,2013-04-17 14:00:00,
2013-04-17 10:05:00,65.9,62.6,30.15,SE,141,0.0,0.0,89,0.00,,,0.00,Wunderground v.1.15,2013-04-17 14:05:00,
2013-04-17 10:15:00,66.4,62.7,30.15,SE,141,0.0,0.0,88,0.00,,,0.00,Wunderground v.1.15,2013-04-17 14:15:00,
2013-04-17 10:20:00,66.7,63.0,30.15,SE,140,0.0,0.0,88,0.00,,,0.00,Wunderground v.1.15,2013-04-17 14:20:00,
2013-04-17 10:25:00,67.0,63.0,30.15,SE,140,0.0,0.0,87,0.00,,,0.00,Wunderground v.1.15,2013-04-17 14:25:00,
2013-04-17 10:35:00,67.4,62.4,30.15,SE,141,0.0,0.0,84,0.00,,,0.00,Wunderground v.1.15,2013-04-17 14:35:00,
2013-04-17 10:45:00,68.1,63.4,30.14,SE,141,0.0,2.0,85,0.00,,,0.00,Wunderground v.1.15,2013-04-17 14:45:00,
2013-04-17 10:50:00,68.6,63.2,30.14,South,187,0.0,0.0,83,0.00,,,0.00,Wunderground v.1.15,2013-04-17 14:50:00,
2013-04-17 11:00:00,70.1,63.6,30.14,NW,311,0.0,0.0,80,0.00,,,0.00,Wunderground v.1.15,2013-04-17 15:00:00,
2013-04-17 11:05:00,70.7,63.9,30.14,NW,311,0.0,0.0,79,0.00,,,0.00,Wunderground v.1.15,2013-04-17 15:05:00,
2013-04-17 11:15:00,71.5,63.2,30.14,NW,311,0.0,1.0,75,0.00,,,0.00,Wunderground v.1.15,2013-04-17 15:15:00,
2013-04-17 11:20:00,71.8,63.4,30.13,NW,311,0.0,0.0,75,0.00,,,0.00,Wunderground v.1.15,2013-04-17 15:20:00,
2013-04-17 11:25:00,72.1,63.4,30.14,NW,312,0.0,1.0,74,0.00,,,0.00,Wunderground v.1.15,2013-04-17 15:25:00,
2013-04-17 11:35:00,73.0,64.6,30.14,NW,312,1.0,1.0,75,0.00,,,0.00,Wunderground v.1.15,2013-04-17 15:35:00,
2013-04-17 11:40:00,73.3,63.3,30.14,NW,312,1.0,1.0,71,0.00,,,0.00,Wunderground v.1.15,2013-04-17 15:40:00,
2013-04-17 11:50:00,74.6,63.8,30.14,NE,41,0.0,1.0,69,0.00,,,0.00,Wunderground v.1.15,2013-04-17 15:50:00,
2013-04-17 11:55:00,75.2,63.1,30.14,NE,40,0.0,1.0,66,0.00,,,0.00,Wunderground v.1.15,2013-04-17 15:55:00,
2013-04-17 12:05:00,76.4,63.8,30.14,NNW,342,1.0,4.0,65,0.00,,,0.00,Wunderground v.1.15,2013-04-17 16:05:00,
2013-04-17 12:15:00,76.9,65.1,30.14,SW,219,1.0,2.0,67,0.00,,,0.00,Wunderground v.1.15,2013-04-17 16:15:00,
2013-04-17 12:25:00,77.7,64.1,30.14,South,188,1.0,1.0,63,0.00,,,0.00,Wunderground v.1.15,2013-04-17 16:25:00,
2013-04-17 12:30:00,77.8,64.2,30.14,South,188,0.0,0.0,63,0.00,,,0.00,Wunderground v.1.15,2013-04-17 16:30:00,
2013-04-17 12:40:00,77.8,64.6,30.13,SE,135,1.0,2.0,64,0.00,,,0.00,Wunderground v.1.15,2013-04-17 16:40:00,
2013-04-17 12:50:00,78.6,63.1,30.12,ESE,120,1.0,1.0,59,0.00,,,0.00,Wunderground v.1.15,2013-04-17 16:50:00,
2013-04-17 12:55:00,79.0,63.0,30.11,South,181,1.0,1.0,58,0.00,,,0.00,Wunderground v.1.15,2013-04-17 16:55:00,
2013-04-17 13:05:00,79.8,64.7,30.11,SW,226,1.0,1.0,60,0.00,,,0.00,Wunderground v.1.15,2013-04-17 17:05:00,
2013-04-17 13:15:00,80.2,64.1,30.10,East,81,1.0,2.0,58,0.00,,,0.00,Wunderground v.1.15,2013-04-17 17:15:00,
2013-04-17 13:20:00,80.1,63.5,30.10,SSW,208,1.0,1.0,57,0.00,,,0.00,Wunderground v.1.15,2013-04-17 17:20:00,
2013-04-17 13:30:00,80.4,63.8,30.10,SSE,147,1.0,1.0,57,0.00,,,0.00,Wunderground v.1.15,2013-04-17 17:30:00,
2013-04-17 13:40:00,81.2,64.0,30.10,East,96,1.0,1.0,56,0.00,,,0.00,Wunderground v.1.15,2013-04-17 17:40:00,
2013-04-17 13:45:00,81.0,64.8,30.10,South,169,2.0,2.0,58,0.00,,,0.00,Wunderground v.1.15,2013-04-17 17:45:00,
2013-04-17 13:50:00,81.0,64.3,30.10,SE,126,1.0,1.0,57,0.00,,,0.00,Wunderground v.1.15,2013-04-17 17:50:00,
2013-04-17 14:00:00,81.9,65.2,30.10,South,172,1.0,1.0,57,0.00,,,0.00,Wunderground v.1.15,2013-04-17 18:00:00,
2013-04-17 14:05:00,82.4,64.1,30.10,ESE,103,1.0,1.0,54,0.00,,,0.00,Wunderground v.1.15,2013-04-17 18:05:00,
2013-04-17 14:15:00,82.9,62.9,30.09,SE,126,1.0,2.0,51,0.00,,,0.00,Wunderground v.1.15,2013-04-17 18:15:00,
2013-04-17 14:20:00,83.1,63.7,30.10,SSE,162,1.0,1.0,52,0.00,,,0.00,Wunderground v.1.15,2013-04-17 18:20:00,
2013-04-17 14:25:00,83.2,63.7,30.09,SSW,203,1.0,2.0,52,0.00,,,0.00,Wunderground v.1.15,2013-04-17 18:25:00,
2013-04-17 14:35:00,83.6,63.0,30.09,East,95,1.0,2.0,50,0.00,,,0.00,Wunderground v.1.15,2013-04-17 18:35:00,
2013-04-17 14:45:00,83.1,62.5,30.09,SW,229,2.0,5.0,50,0.00,,,0.00,Wunderground v.1.15,2013-04-17 18:45:00,
2013-04-17 14:50:00,83.6,63.0,30.09,ESE,119,1.0,1.0,50,0.00,,,0.00,Wunderground v.1.15,2013-04-17 18:50:00,
2013-04-17 15:00:00,83.9,64.4,30.08,South,187,1.0,1.0,52,0.00,,,0.00,Wunderground v.1.15,2013-04-17 19:00:00,
2013-04-17 15:05:00,84.5,63.2,30.08,East,96,1.0,1.0,49,0.00,,,0.00,Wunderground v.1.15,2013-04-17 19:05:00,
2013-04-17 15:14:00,84.6,63.3,30.08,East,95,1.0,1.0,49,0.00,,,0.00,Wunderground v.1.15,2013-04-17 19:14:00,
2013-04-17 15:20:00,84.6,62.1,30.08,SSE,166,0.0,0.0,47,0.00,,,0.00,Wunderground v.1.15,2013-04-17 19:20:00,
2013-04-17 15:25:00,84.9,63.0,30.07,South,169,0.0,0.0,48,0.00,,,0.00,Wunderground v.1.15,2013-04-17 19:25:00,
2013-04-17 15:35:00,84.7,62.2,30.07,East,100,1.0,3.0,47,0.00,,,0.00,Wunderground v.1.15,2013-04-17 19:35:00,
2013-04-17 15:40:00,85.0,62.5,30.07,ESE,103,1.0,1.0,47,0.00,,,0.00,Wunderground v.1.15,2013-04-17 19:40:00,
2013-04-17 15:50:00,85.1,62.0,30.07,SE,135,1.0,1.0,46,0.00,,,0.00,Wunderground v.1.15,2013-04-17 19:50:00,
2013-04-17 15:55:00,85.2,64.5,30.06,East,101,1.0,1.0,50,0.00,,,0.00,Wunderground v.1.15,2013-04-17 19:55:00,
2013-04-17 16:05:00,85.3,63.4,30.06,ESE,104,1.0,2.0,48,0.00,,,0.00,Wunderground v.1.15,2013-04-17 20:05:00,
2013-04-17 16:15:00,85.3,63.4,30.06,ESE,122,1.0,2.0,48,0.00,,,0.00,Wunderground v.1.15,2013-04-17 20:15:00,
2013-04-17 16:25:00,85.3,64.0,30.05,East,97,1.0,2.0,49,0.00,,,0.00,Wunderground v.1.15,2013-04-17 20:25:00,
2013-04-17 16:30:00,85.0,63.7,30.06,East,98,1.0,1.0,49,0.00,,,0.00,Wunderground v.1.15,2013-04-17 20:30:00,
2013-04-17 16:40:00,83.5,62.9,30.06,East,99,0.0,0.0,50,0.00,,,0.00,Wunderground v.1.15,2013-04-17 20:40:00,
2013-04-17 16:45:00,83.0,64.1,30.06,East,99,0.0,0.0,53,0.00,,,0.00,Wunderground v.1.15,2013-04-17 20:45:00,
2013-04-17 16:55:00,83.2,63.2,30.06,East,99,1.0,1.0,51,0.00,,,0.00,Wunderground v.1.15,2013-04-17 20:55:00,
2013-04-17 17:05:00,82.7,63.8,30.06,East,97,0.0,1.0,53,0.00,,,0.00,Wunderground v.1.15,2013-04-17 21:05:00,
2013-04-17 17:15:00,82.7,63.3,30.05,SSW,195,0.0,1.0,52,0.00,,,0.00,Wunderground v.1.15,2013-04-17 21:15:00,
2013-04-17 17:20:00,82.3,62.9,30.06,SE,131,1.0,1.0,52,0.00,,,0.00,Wunderground v.1.15,2013-04-17 21:20:00,
2013-04-17 17:30:00,81.4,62.6,30.06,SE,131,1.0,1.0,53,0.00,,,0.00,Wunderground v.1.15,2013-04-17 21:30:00,
2013-04-17 17:35:00,81.3,63.6,30.06,SE,131,1.0,1.0,55,0.00,,,0.00,Wunderground v.1.15,2013-04-17 21:35:00,
2013-04-17 17:45:00,81.4,62.6,30.06,SE,127,1.0,1.0,53,0.00,,,0.00,Wunderground v.1.15,2013-04-17 21:45:00,
2013-04-17 17:50:00,81.3,63.1,30.06,SE,127,1.0,2.0,54,0.00,,,0.00,Wunderground v.1.15,2013-04-17 21:50:00,
2013-04-17 18:00:00,80.8,62.6,30.06,SE,126,1.0,1.0,54,0.00,,,0.00,Wunderground v.1.15,2013-04-17 22:00:00,
2013-04-17 18:05:00,80.5,62.3,30.06,SE,126,1.0,1.0,54,0.00,,,0.00,Wunderground v.1.15,2013-04-17 22:05:00,
2013-04-17 18:15:00,80.1,62.0,30.06,SE,127,0.0,1.0,54,0.00,,,0.00,Wunderground v.1.15,2013-04-17 22:15:00,
2013-04-17 18:20:00,79.8,62.7,30.06,SE,127,0.0,0.0,56,0.00,,,0.00,Wunderground v.1.15,2013-04-17 22:20:00,
2013-04-17 18:25:00,79.6,62.0,30.06,SE,127,0.0,0.0,55,0.00,,,0.00,Wunderground v.1.15,2013-04-17 22:25:00,
2013-04-17 18:35:00,79.4,61.8,30.06,SE,127,0.0,0.0,55,0.00,,,0.00,Wunderground v.1.15,2013-04-17 22:35:00,
2013-04-17 18:45:00,79.0,62.0,30.07,SE,127,0.0,0.0,56,0.00,,,0.00,Wunderground v.1.15,2013-04-17 22:45:00,
2013-04-17 18:50:00,78.8,61.3,30.06,SE,127,0.0,0.0,55,0.00,,,0.00,Wunderground v.1.15,2013-04-17 22:50:00,
2013-04-17 19:00:00,78.2,61.7,30.07,SE,127,0.0,0.0,57,0.00,,,0.00,Wunderground v.1.15,2013-04-17 23:00:00,
2013-04-17 19:05:00,78.0,62.0,30.07,SE,127,0.0,0.0,58,0.00,,,0.00,Wunderground v.1.15,2013-04-17 23:05:00,
2013-04-17 19:15:00,77.1,65.3,30.07,SE,127,0.0,0.0,67,0.00,,,0.01,Wunderground v.1.15,2013-04-17 23:15:00,
2013-04-17 19:20:00,76.2,65.7,30.07,SE,127,0.0,0.0,70,0.00,,,0.01,Wunderground v.1.15,2013-04-17 23:20:00,
2013-04-17 19:25:00,75.2,65.1,30.08,SE,127,0.0,0.0,71,0.00,,,0.01,Wunderground v.1.15,2013-04-17 23:25:00,
2013-04-17 19:35:00,73.7,64.9,30.08,SE,127,0.0,0.0,74,0.00,,,0.01,Wunderground v.1.15,2013-04-17 23:35:00,
2013-04-17 19:45:00,72.3,65.8,30.09,NE,48,0.0,2.0,80,0.00,,,0.02,Wunderground v.1.15,2013-04-17 23:45:00,
2013-04-17 19:50:00,70.7,65.6,30.09,NE,51,2.0,4.0,84,0.00,,,0.02,Wunderground v.1.15,2013-04-17 23:50:00,
2013-04-17 19:55:00,69.2,64.8,30.09,NE,41,3.0,4.0,86,0.05,,,0.03,Wunderground v.1.15,2013-04-17 23:55:00,
2013-04-17 20:05:00,67.7,64.3,30.10,NE,41,2.0,3.0,89,0.05,,,0.03,Wunderground v.1.15,2013-04-18 00:05:00,
2013-04-17 20:15:00,67.1,64.4,30.10,NE,41,1.0,2.0,91,0.00,,,0.03,Wunderground v.1.15,2013-04-18 00:15:00,
2013-04-17 20:25:00,67.0,64.3,30.10,NE,41,1.0,1.0,91,0.00,,,0.03,Wunderground v.1.15,2013-04-18 00:25:00,
2013-04-17 20:30:00,67.1,64.1,30.11,NE,41,1.0,2.0,90,0.00,,,0.03,Wunderground v.1.15,2013-04-18 00:30:00,
2013-04-17 20:40:00,66.8,63.8,30.11,NE,41,1.0,1.0,90,0.00,,,0.03,Wunderground v.1.15,2013-04-18 00:40:00,
2013-04-17 20:50:00,66.9,63.2,30.12,NE,41,1.0,1.0,88,0.00,,,0.03,Wunderground v.1.15,2013-04-18 00:50:00,
2013-04-17 20:55:00,67.0,63.3,30.12,NE,41,1.0,1.0,88,0.00,,,0.03,Wunderground v.1.15,2013-04-18 00:55:00,
2013-04-17 21:05:00,66.9,62.9,30.12,NE,41,1.0,1.0,87,0.00,,,0.03,Wunderground v.1.15,2013-04-18 01:05:00,
2013-04-17 21:15:00,66.7,62.7,30.12,NE,41,0.0,0.0,87,0.00,,,0.03,Wunderground v.1.15,2013-04-18 01:15:00,
2013-04-17 21:20:00,66.5,62.8,30.12,NE,41,0.0,0.0,88,0.00,,,0.03,Wunderground v.1.15,2013-04-18 01:20:00,
2013-04-17 21:30:00,66.3,62.3,30.13,NE,41,0.0,0.0,87,0.00,,,0.03,Wunderground v.1.15,2013-04-18 01:30:00,
2013-04-17 21:40:00,66.0,62.0,30.13,NE,41,0.0,0.0,87,0.00,,,0.03,Wunderground v.1.15,2013-04-18 01:40:00,
2013-04-17 21:50:00,65.9,61.9,30.14,NE,41,0.0,0.0,87,0.00,,,0.03,Wunderground v.1.15,2013-04-18 01:50:00,
2013-04-17 21:55:00,65.8,61.8,30.14,NE,41,0.0,0.0,87,0.00,,,0.03,Wunderground v.1.15,2013-04-18 01:55:00,
2013-04-17 22:00:00,65.6,61.6,30.14,NE,41,0.0,0.0,87,0.00,,,0.03,Wunderground v.1.15,2013-04-18 02:00:00,
2013-04-17 22:05:00,65.5,61.9,30.14,NE,41,0.0,0.0,88,0.00,,,0.03,Wunderground v.1.15,2013-04-18 02:05:00,
2013-04-17 22:15:00,65.1,61.8,30.14,NE,41,0.0,1.0,89,0.00,,,0.03,Wunderground v.1.15,2013-04-18 02:15:00,
2013-04-17 22:20:00,64.9,61.6,30.14,NE,41,0.0,0.0,89,0.00,,,0.03,Wunderground v.1.15,2013-04-18 02:20:00,
2013-04-17 22:30:00,64.8,61.5,30.14,NE,41,0.0,0.0,89,0.00,,,0.03,Wunderground v.1.15,2013-04-18 02:30:00,
2013-04-17 22:35:00,64.7,61.4,30.14,NE,41,0.0,0.0,89,0.00,,,0.03,Wunderground v.1.15,2013-04-18 02:35:00,
2013-04-17 22:45:00,64.6,61.3,30.15,NE,41,0.0,0.0,89,0.00,,,0.03,Wunderground v.1.15,2013-04-18 02:45:00,
2013-04-17 22:55:00,64.6,61.3,30.15,NE,41,0.0,0.0,89,0.00,,,0.03,Wunderground v.1.15,2013-04-18 02:55:00,
2013-04-17 23:00:00,64.6,61.3,30.15,NE,41,0.0,0.0,89,0.00,,,0.03,Wunderground v.1.15,2013-04-18 03:00:00,
2013-04-17 23:05:00,64.7,61.4,30.15,NE,41,0.0,0.0,89,0.00,,,0.03,Wunderground v.1.15,2013-04-18 03:05:00,
2013-04-17 23:14:00,64.7,61.4,30.15,NE,41,0.0,0.0,89,0.00,,,0.03,Wunderground v.1.15,2013-04-18 03:14:00,
2013-04-17 23:20:00,64.7,61.7,30.15,NE,41,0.0,0.0,90,0.00,,,0.03,Wunderground v.1.15,2013-04-18 03:20:00,
2013-04-17 23:25:00,64.7,61.4,30.15,NE,41,0.0,1.0,89,0.00,,,0.03,Wunderground v.1.15,2013-04-18 03:25:00,
2013-04-17 23:35:00,64.6,61.3,30.15,NE,41,0.0,0.0,89,0.00,,,0.03,Wunderground v.1.15,2013-04-18 03:35:00,
2013-04-17 23:40:00,64.6,61.3,30.15,NE,41,0.0,0.0,89,0.00,,,0.03,Wunderground v.1.15,2013-04-18 03:40:00,
2013-04-17 23:50:00,64.6,61.0,30.15,NE,41,0.0,1.0,88,0.00,,,0.03,Wunderground v.1.15,2013-04-18 03:50:00,
2013-04-17 23:55:00,64.5,61.2,30.15,NE,41,0.0,1.0,89,0.00,,,0.03,Wunderground v.1.15,2013-04-18 03:55:00,